Wesley, Iowa
Current Conditions -  °F | °C
As of 7:15 AM on Sunday 21 Dec 2014 (Local Time) from KAXA Reporting Station
Haze Haze  
Wind Chill: 25°   Ceiling: 200
Heat Index: 36°   Visibility: 0.75mi
Dew Point: 36°   Wind: 20mph
Humidity: 100%   Direction: 180°S
Pressure: 29.88"   Gusts: 26mph
Location:  43.09°N, 93.99°W
Report Text: KAXA 211315Z AUTO 18017G23KT 3/4SM BR OVC002 02/02 A2988 RMK AO2
Loading
Personal Weather Stations






























Interactive Weather Map New forecast layout! Learn more

10-Day Weather Forecast

Advertisements
Track Severe Weather on mobile